Terminal Aerodrome Forecast
Issued by NWS

Home | Current Version | Previous Version | Text Only | Print | Product List | Glossary On
Versions: 1 2 3 4 5 6 7 8 9 10 11 12 13 14 15
000
FTUS45 KCYS 201852 AAA
TAFAIA
TAF AMD
KAIA 201852Z 2019/2118 14015KT 3SM -RASN SCT020 OVC025
      TEMPO 2019/2022 1SM -SN BR BKN015
     FM202300 14020G28KT 6SM -RASN BKN015 OVC025
     FM210500 12013KT 3SM -RASN BKN007 OVC015
     FM211700 19007KT P6SM OVC015=

USA.gov is the U.S. government's official web portal to all federal, state and local government web resources and services.